createdAt,value
2022-07-26T00:02:19.358Z,52
2022-07-26T00:20:47.517Z,53.1
2022-07-26T00:35:58.110Z,53.8
2022-07-26T00:51:10.698Z,53.5
2022-07-26T01:06:28.031Z,53.5
2022-07-26T01:21:38.697Z,53.4
2022-07-26T01:36:47.483Z,53.5
2022-07-26T01:51:56.597Z,53.6
2022-07-26T02:07:13.645Z,53.6
2022-07-26T02:22:22.444Z,53.8
2022-07-26T02:37:44.261Z,53.9
2022-07-26T02:52:56.726Z,54.1
2022-07-26T03:08:06.269Z,54.3
2022-07-26T03:23:15.613Z,54.3
2022-07-26T03:38:25.048Z,54.4
2022-07-26T03:53:39.043Z,54.7
2022-07-26T04:08:48.899Z,55
2022-07-26T04:23:58.342Z,55.1
2022-07-26T04:39:07.892Z,55.5
2022-07-26T04:54:17.434Z,55.9
2022-07-26T05:09:26.784Z,56.1
2022-07-26T05:24:36.201Z,56.3
2022-07-26T05:39:45.495Z,56.6
2022-07-26T05:54:54.687Z,56.9
2022-07-26T06:10:04.588Z,57.1
2022-07-26T06:25:13.343Z,57.6
2022-07-26T06:40:23.086Z,57.4
2022-07-26T06:55:32.584Z,57.4
2022-07-26T07:10:43.443Z,57.2
2022-07-26T07:25:54.033Z,57.4
2022-07-26T07:41:03.555Z,56.9
2022-07-26T07:56:12.412Z,57.2
2022-07-26T08:11:21.913Z,57
2022-07-26T08:26:31.090Z,58.4
2022-07-26T08:41:39.870Z,60.1
2022-07-26T08:56:49.141Z,61.7
2022-07-26T09:11:57.889Z,61.5
2022-07-26T09:27:07.435Z,61.1
2022-07-26T09:42:30.373Z,61.5
2022-07-26T09:57:39.671Z,61.3
2022-07-26T10:12:49.088Z,60.9
2022-07-26T10:27:58.674Z,61.4
2022-07-26T10:43:43.090Z,61.4
2022-07-26T10:58:53.083Z,60.9
2022-07-26T11:14:02.958Z,59
2022-07-26T11:29:40.939Z,59.4
2022-07-26T11:44:51.292Z,59.2
2022-07-26T12:00:02.095Z,59
2022-07-26T12:15:11.657Z,58.6
2022-07-26T12:30:21.062Z,58.9
2022-07-26T12:45:30.132Z,58.2
2022-07-26T13:00:41.064Z,58
2022-07-26T13:15:50.457Z,58.1
2022-07-26T13:31:00.548Z,58.5
2022-07-26T13:46:10.992Z,58.2
2022-07-26T14:01:45.892Z,58
2022-07-26T14:16:58.578Z,57.9
2022-07-26T14:32:08.551Z,57.8
2022-07-26T14:47:18.338Z,56.9
2022-07-26T15:02:28.239Z,56.8
2022-07-26T15:17:39.535Z,56.7
2022-07-26T15:32:49.307Z,56.7
2022-07-26T15:48:22.843Z,56.9
2022-07-26T16:03:33.024Z,56.5
2022-07-26T16:18:43.475Z,55.5
2022-07-26T16:33:52.809Z,55.6
2022-07-26T16:49:05.796Z,55.2
2022-07-26T17:04:15.156Z,55.6
2022-07-26T17:19:23.959Z,55.6
2022-07-26T17:34:33.235Z,55.6
2022-07-26T17:49:42.290Z,54.7
2022-07-26T18:04:51.749Z,56.2
2022-07-26T18:20:01.245Z,55.6
2022-07-26T18:35:10.622Z,55.8
2022-07-26T18:50:22.632Z,55.9
2022-07-26T19:05:37.160Z,56
2022-07-26T19:20:46.488Z,56.1
2022-07-26T19:35:56.701Z,56
2022-07-26T19:51:05.781Z,56
2022-07-26T20:06:15.276Z,56
2022-07-26T20:21:24.730Z,55.9
2022-07-26T20:36:33.839Z,56.3
2022-07-26T20:51:42.796Z,56.5
2022-07-26T21:06:53.110Z,56.6
2022-07-26T21:22:02.317Z,56.8
2022-07-26T21:37:11.431Z,56.9
2022-07-26T21:52:20.962Z,57.1
2022-07-26T22:07:30.417Z,57.2
2022-07-26T22:22:39.644Z,57.6
2022-07-26T22:37:50.874Z,57.4
2022-07-26T22:53:01.220Z,57.9
2022-07-26T23:08:48.371Z,57.3
2022-07-26T23:24:04.484Z,58
2022-07-26T23:39:15.363Z,58
2022-07-26T23:54:24.391Z,58.6
